Time;durP1;ratioP1;P1;durP2;ratioP2;P2;SDS_P1;SDS_P2;PMS_P1;PMS_P2;Temp;Humidity;BMP_temperature;BMP_pressure;BME280_temperature;BME280_humidity;BME280_pressure;Samples;Min_cycle;Max_cycle;Signal;HPM_P1;HPM_P2
2023/10/19 00:01:16;;;;;;;13.13;7.60;;;;;;;10.03;100.00;98784.47;4982210;28;20667;-73
2023/10/19 00:03:44;;;;;;;14.13;7.47;;;;;;;10.01;100.00;98780.97;4987185;28;20228;-73
2023/10/19 00:06:11;;;;;;;13.97;7.83;;;;;;;10.00;100.00;98781.81;4984995;28;20226;-72
2023/10/19 00:08:41;;;;;;;13.27;7.80;;;;;;;10.09;100.00;98786.16;4984551;28;20205;-73
2023/10/19 00:11:09;;;;;;;16.03;7.93;;;;;;;10.11;100.00;98776.44;4990126;28;20199;-72
2023/10/19 00:13:37;;;;;;;17.33;8.13;;;;;;;10.12;100.00;98772.91;4985760;28;20266;-72
2023/10/19 00:16:19;;;;;;;13.83;8.20;;;;;;;10.20;100.00;98764.88;4984838;28;20218;-72
2023/10/19 00:18:49;;;;;;;16.77;8.20;;;;;;;10.13;100.00;98763.22;4987510;28;20238;-73
2023/10/19 00:23:50;;;;;;;16.00;8.70;;;;;;;10.17;100.00;98760.50;4981671;28;20208;-73
2023/10/19 00:26:19;;;;;;;16.90;8.87;;;;;;;10.16;100.00;98750.81;4986108;28;20651;-73
2023/10/19 00:28:49;;;;;;;17.93;8.80;;;;;;;10.14;100.00;98751.72;4987040;28;20494;-73
2023/10/19 00:31:15;;;;;;;17.70;8.77;;;;;;;10.12;100.00;98758.81;4982408;28;20198;-73
2023/10/19 00:33:42;;;;;;;15.87;8.57;;;;;;;10.13;100.00;98749.97;4987325;28;20206;-72
2023/10/19 00:36:12;;;;;;;16.37;8.73;;;;;;;10.19;100.00;98747.25;4989357;28;20301;-72
2023/10/19 00:38:47;;;;;;;13.90;8.30;;;;;;;10.28;100.00;98748.06;4985386;28;20215;-73
2023/10/19 00:41:21;;;;;;;14.40;8.47;;;;;;;10.27;100.00;98745.44;4984619;28;20686;-72
2023/10/19 00:44:10;;;;;;;12.73;7.80;;;;;;;10.25;100.00;98750.75;4985886;28;20635;-72
2023/10/19 00:46:43;;;;;;;16.43;8.73;;;;;;;10.27;100.00;98741.00;4979284;28;20681;-79
2023/10/19 00:49:14;;;;;;;17.40;8.63;;;;;;;10.26;100.00;98741.91;4981162;28;20232;-74
2023/10/19 00:52:10;;;;;;;13.70;7.83;;;;;;;10.27;100.00;98742.78;4986236;28;20410;-74
2023/10/19 00:54:52;;;;;;;13.37;7.73;;;;;;;10.23;100.00;98735.78;4988718;28;20211;-74
2023/10/19 00:57:41;;;;;;;16.70;8.33;;;;;;;10.28;100.00;98739.25;4985594;28;20684;-74
2023/10/19 01:00:55;;;;;;;12.70;7.47;;;;;;;10.31;100.00;98728.63;4981443;28;20249;-73
2023/10/19 01:02:59;;;;;;;14.83;8.47;;;;;;;10.29;100.00;98725.13;4982766;28;20215;-74
2023/10/19 01:05:35;;;;;;;14.30;8.83;;;;;;;10.33;100.00;98719.75;4988387;28;20249;-74
2023/10/19 01:08:14;;;;;;;15.90;8.70;;;;;;;10.38;100.00;98717.06;4985814;28;20854;-74
2023/10/19 01:10:42;;;;;;;17.93;8.73;;;;;;;10.41;100.00;98725.00;4976296;28;20283;-74
2023/10/19 01:13:09;;;;;;;13.80;8.33;;;;;;;10.38;100.00;98722.34;4979757;28;20212;-74
2023/10/19 01:15:36;;;;;;;17.23;9.00;;;;;;;10.36;100.00;98721.50;4979332;28;20223;-74
2023/10/19 01:18:04;;;;;;;17.80;9.17;;;;;;;10.34;100.00;98715.34;4986834;28;20200;-74
2023/10/19 01:33:58;;;;;;;16.97;9.50;;;;;;;10.45;100.00;98696.72;4983719;28;20231;-74
2023/10/19 01:36:26;;;;;;;16.27;8.63;;;;;;;10.48;100.00;98692.25;4983145;28;20307;-74
2023/10/19 01:39:00;;;;;;;16.80;9.57;;;;;;;10.50;100.00;98679.00;4982360;28;20251;-74
2023/10/19 01:41:30;;;;;;;16.13;9.17;;;;;;;10.58;100.00;98679.75;4985537;28;20293;-74
2023/10/19 01:44:04;;;;;;;17.13;8.80;;;;;;;10.54;100.00;98684.22;4984708;28;20310;-74
2023/10/19 01:46:33;;;;;;;18.73;9.73;;;;;;;10.59;100.00;98686.81;4985168;28;20682;-74
2023/10/19 01:49:02;;;;;;;17.97;9.77;;;;;;;10.61;100.00;98695.59;4984208;28;20252;-73
2023/10/19 01:51:32;;;;;;;18.40;9.87;;;;;;;10.59;100.00;98692.09;4983969;28;20212;-74
2023/10/19 01:54:02;;;;;;;16.80;9.60;;;;;;;10.55;100.00;98683.31;4986395;28;20212;-74
2023/10/19 01:56:29;;;;;;;18.47;9.57;;;;;;;10.57;100.00;98681.53;4981671;28;20243;-74
2023/10/19 01:58:57;;;;;;;19.23;10.13;;;;;;;10.63;100.00;98678.78;4984864;28;20224;-74
2023/10/19 02:03:58;;;;;;;18.50;10.23;;;;;;;10.72;100.00;98683.06;4987673;28;20205;-73
2023/10/19 02:06:46;;;;;;;17.20;9.73;;;;;;;10.64;100.00;98677.00;4980870;28;20277;-74
2023/10/19 02:09:32;;;;;;;17.10;9.10;;;;;;;10.67;100.00;98684.91;4983592;28;20600;-73
2023/10/19 02:11:58;;;;;;;20.70;10.53;;;;;;;10.67;100.00;98664.59;4981481;28;20296;-73
2023/10/19 02:14:26;;;;;;;22.60;10.63;;;;;;;10.70;100.00;98678.69;4983426;28;20211;-74
2023/10/19 02:16:56;;;;;;;17.20;9.30;;;;;;;10.66;100.00;98681.38;4987461;28;20231;-74
2023/10/19 02:19:25;;;;;;;19.63;10.67;;;;;;;10.71;100.00;98667.22;4980706;28;20710;-74
2023/10/19 02:21:53;;;;;;;21.27;10.30;;;;;;;10.72;100.00;98666.31;4983806;28;20214;-73
2023/10/19 02:24:20;;;;;;;20.47;10.73;;;;;;;10.68;100.00;98660.19;4976636;28;20256;-74
2023/10/19 02:26:51;;;;;;;18.97;10.23;;;;;;;10.74;100.00;98662.75;4983700;28;20207;-73
2023/10/19 02:29:17;;;;;;;19.77;10.17;;;;;;;10.76;100.00;98654.78;4988120;28;20234;-73
2023/10/19 02:31:44;;;;;;;19.70;9.87;;;;;;;10.77;100.00;98654.75;4990760;28;20201;-73
2023/10/19 02:34:14;;;;;;;20.57;10.50;;;;;;;10.74;100.00;98649.50;4987176;28;20229;-74
2023/10/19 02:36:43;;;;;;;20.00;10.43;;;;;;;10.79;100.00;98652.06;4987486;28;20239;-73
2023/10/19 02:39:11;;;;;;;22.60;10.57;;;;;;;10.77;100.00;98651.22;4984422;28;20240;-73
2023/10/19 02:41:41;;;;;;;21.70;10.90;;;;;;;10.88;100.00;98644.00;4990469;28;20208;-75
2023/10/19 02:44:09;;;;;;;21.93;11.17;;;;;;;10.86;100.00;98643.16;4988336;28;20210;-75
2023/10/19 02:46:41;;;;;;;23.33;10.87;;;;;;;10.86;100.00;98641.38;4988172;28;20565;-75
2023/10/19 02:49:11;;;;;;;26.93;12.10;;;;;;;10.90;100.00;98637.78;4989816;28;20235;-75
2023/10/19 02:51:39;;;;;;;24.93;11.50;;;;;;;10.87;100.00;98637.84;4987560;28;20614;-73
2023/10/19 02:54:07;;;;;;;22.67;11.53;;;;;;;10.83;100.00;98630.84;4985160;28;20209;-75
2023/10/19 02:56:35;;;;;;;23.77;11.73;;;;;;;10.82;100.00;98636.16;4987686;28;20599;-75
2023/10/19 02:59:05;;;;;;;21.50;11.97;;;;;;;10.82;100.00;98633.53;4991312;28;20709;-75
2023/10/19 03:01:33;;;;;;;23.87;11.67;;;;;;;10.81;100.00;98629.13;4990844;28;20201;-74
2023/10/19 03:04:01;;;;;;;25.80;10.83;;;;;;;10.81;100.00;98629.13;4987359;28;20208;-74
2023/10/19 03:06:32;;;;;;;23.83;11.03;;;;;;;10.87;100.00;98643.13;4991208;28;20324;-74
2023/10/19 03:09:20;;;;;;;24.43;12.13;;;;;;;10.97;100.00;98625.31;4989236;28;20230;-74
2023/10/19 03:11:46;;;;;;;24.70;12.33;;;;;;;10.91;100.00;98634.25;4990887;28;20209;-74
2023/10/19 03:14:13;;;;;;;27.67;12.23;;;;;;;10.93;100.00;98634.22;4991286;28;20206;-76
2023/10/19 03:16:43;;;;;;;24.20;11.80;;;;;;;10.92;100.00;98622.75;4988006;28;20587;-74
2023/10/19 03:19:09;;;;;;;26.30;12.73;;;;;;;10.93;100.00;98627.16;4985884;28;20221;-73
2023/10/19 03:21:42;;;;;;;24.17;12.60;;;;;;;10.94;100.00;98631.53;4986860;28;20288;-75
2023/10/19 03:24:22;;;;;;;25.03;12.10;;;;;;;10.93;100.00;98623.63;4989315;28;20208;-75
2023/10/19 03:26:50;;;;;;;25.97;11.47;;;;;;;10.90;100.00;98628.97;4986771;28;20199;-74
2023/10/19 03:29:19;;;;;;;28.57;12.37;;;;;;;10.93;100.00;98616.53;4986447;28;20600;-74
2023/10/19 03:31:47;;;;;;;26.77;12.00;;;;;;;10.95;100.00;98620.03;4988473;28;20213;-75
2023/10/19 03:34:16;;;;;;;28.93;13.30;;;;;;;10.96;100.00;98620.91;4985940;28;20209;-75
2023/10/19 03:36:43;;;;;;;28.10;12.63;;;;;;;11.05;100.00;98625.19;4989468;28;20232;-76
2023/10/19 03:39:14;;;;;;;31.90;13.40;;;;;;;11.07;100.00;98621.59;4985128;28;20252;-76
2023/10/19 03:41:44;;;;;;;28.27;13.07;;;;;;;11.12;100.00;98624.16;4987156;28;20233;-75
2023/10/19 03:44:19;;;;;;;30.30;12.90;;;;;;;11.03;100.00;98614.63;4987451;28;20201;-74
2023/10/19 03:47:01;;;;;;;31.57;14.37;;;;;;;11.03;100.00;98613.75;4982654;28;20697;-74
2023/10/19 03:49:33;;;;;;;31.60;14.60;;;;;;;11.02;100.00;98609.34;5007527;23;20315;-76
2023/10/19 03:52:02;;;;;;;31.50;14.67;;;;;;;11.05;100.00;98590.75;5019076;28;20654;-77
2023/10/19 03:54:32;;;;;;;30.53;14.17;;;;;;;11.02;100.00;98591.66;5016343;28;20204;-77
2023/10/19 03:57:05;;;;;;;39.77;15.70;;;;;;;11.10;100.00;98581.81;5015929;28;20306;-76
2023/10/19 03:59:35;;;;;;;38.57;15.43;;;;;;;11.13;100.00;98568.50;5010709;28;20230;-76
2023/10/19 04:02:07;;;;;;;33.73;15.83;;;;;;;11.09;100.00;98550.03;4996089;28;20204;-76
2023/10/19 04:04:33;;;;;;;36.80;15.97;;;;;;;11.11;100.00;98546.47;4996429;28;20680;-78
2023/10/19 04:07:10;;;;;;;36.07;15.53;;;;;;;11.05;100.00;98554.53;4999984;28;20200;-77
2023/10/19 04:09:56;;;;;;;33.97;14.80;;;;;;;11.07;100.00;98565.97;4995821;28;20231;-76
2023/10/19 04:12:31;;;;;;;38.07;14.77;;;;;;;11.10;100.00;98549.16;4998885;28;20228;-76
2023/10/19 04:15:09;;;;;;;34.70;15.33;;;;;;;11.15;100.00;98549.94;5002099;28;20207;-77
2023/10/19 04:17:36;;;;;;;35.47;15.77;;;;;;;11.15;100.00;98542.84;4998850;28;20704;-75
2023/10/19 04:22:46;;;;;;;39.90;16.30;;;;;;;11.15;100.00;98553.44;4999952;28;20291;-75
2023/10/19 04:25:13;;;;;;;32.03;14.47;;;;;;;11.14;100.00;98553.47;5004970;28;20201;-72
2023/10/19 04:27:41;;;;;;;36.73;15.43;;;;;;;11.14;100.00;98551.72;4994075;28;20201;-73
2023/10/19 04:30:15;;;;;;;39.53;15.67;;;;;;;11.16;100.00;98552.56;5000164;28;20222;-72
2023/10/19 04:32:43;;;;;;;34.00;14.97;;;;;;;11.15;100.00;98555.22;4996860;28;20201;-70
2023/10/19 04:35:21;;;;;;;36.83;15.70;;;;;;;11.26;100.00;98548.84;4993224;28;20317;-71
2023/10/19 04:37:50;;;;;;;31.67;14.47;;;;;;;11.27;100.00;98547.06;5000615;28;20232;-72
2023/10/19 04:40:16;;;;;;;35.93;15.07;;;;;;;11.27;100.00;98542.66;4997080;28;20225;-71
2023/10/19 04:42:43;;;;;;;37.50;16.23;;;;;;;11.33;100.00;98548.72;4997794;28;20208;-71
2023/10/19 04:45:11;;;;;;;42.17;16.53;;;;;;;11.40;100.00;98547.69;4996811;28;20202;-73
2023/10/19 04:47:38;;;;;;;43.90;16.37;;;;;;;11.34;100.00;98559.31;4996531;28;20663;-73
2023/10/19 04:50:06;;;;;;;39.20;16.00;;;;;;;11.28;100.00;98559.41;5003294;28;20234;-77
2023/10/19 04:52:33;;;;;;;37.83;16.63;;;;;;;11.21;100.00;98542.78;4999222;28;20201;-77
2023/10/19 04:55:01;;;;;;;36.27;15.23;;;;;;;11.19;100.00;98557.78;4998464;28;20202;-76
2023/10/19 04:57:27;;;;;;;41.37;15.63;;;;;;;11.24;100.00;98555.97;4999627;28;20245;-76
2023/10/19 04:59:55;;;;;;;36.00;15.10;;;;;;;11.20;100.00;98550.72;4996899;28;20226;-74
2023/10/19 05:02:22;;;;;;;45.10;16.53;;;;;;;11.22;100.00;98544.50;4997662;28;20293;-75
2023/10/19 05:04:49;;;;;;;40.30;15.00;;;;;;;11.22;100.00;98546.28;4994205;28;20206;-73
2023/10/19 05:07:19;;;;;;;37.13;16.47;;;;;;;11.21;100.00;98550.72;4994489;28;20230;-73
2023/10/19 05:09:46;;;;;;;34.40;15.90;;;;;;;11.23;100.00;98556.00;4993043;28;20724;-72
2023/10/19 05:12:14;;;;;;;39.73;16.43;;;;;;;11.24;100.00;98549.78;4997870;28;20199;-72
2023/10/19 05:14:42;;;;;;;36.83;15.30;;;;;;;11.26;100.00;98559.44;4995866;28;20212;-71
2023/10/19 05:17:09;;;;;;;39.63;17.50;;;;;;;11.33;100.00;98551.38;4999046;28;20214;-71
2023/10/19 05:19:36;;;;;;;35.00;16.37;;;;;;;11.33;100.00;98554.91;4992837;28;20706;-72
2023/10/19 05:22:05;;;;;;;41.70;16.70;;;;;;;11.30;100.00;98553.19;4997445;28;20217;-71
2023/10/19 05:24:33;;;;;;;39.70;16.40;;;;;;;11.37;100.00;98543.34;4998104;28;20890;-70
2023/10/19 05:26:59;;;;;;;36.97;16.20;;;;;;;11.31;100.00;98535.50;4994960;28;20209;-71
2023/10/19 05:29:26;;;;;;;34.33;15.43;;;;;;;11.35;100.00;98549.56;4993954;28;20225;-71
2023/10/19 05:31:54;;;;;;;27.90;14.60;;;;;;;11.36;100.00;98552.19;4994853;28;20230;-70
2023/10/19 05:34:21;;;;;;;32.87;15.63;;;;;;;11.38;100.00;98553.03;4995021;28;20298;-71
2023/10/19 05:36:49;;;;;;;30.80;14.83;;;;;;;11.36;100.00;98551.31;4997706;28;20224;-71
2023/10/19 05:39:16;;;;;;;26.30;13.47;;;;;;;11.32;100.00;98537.25;4999252;28;20230;-70
2023/10/19 05:41:43;;;;;;;27.77;13.80;;;;;;;11.34;100.00;98543.41;5000886;28;20352;-70
2023/10/19 05:44:10;;;;;;;30.07;14.27;;;;;;;11.38;100.00;98542.44;5002857;28;20204;-70
2023/10/19 05:46:37;;;;;;;29.27;14.57;;;;;;;11.34;100.00;98542.53;4991554;28;20200;-70
2023/10/19 05:49:06;;;;;;;36.47;15.70;;;;;;;11.40;100.00;98545.94;4992432;28;20469;-71
2023/10/19 05:51:32;;;;;;;36.87;15.87;;;;;;;11.43;100.00;98542.34;4999213;28;20628;-70
2023/10/19 05:54:01;;;;;;;31.17;14.90;;;;;;;11.40;100.00;98550.34;5002104;28;20290;-69
2023/10/19 05:56:30;;;;;;;33.17;14.57;;;;;;;11.41;100.00;98554.75;4994306;28;20322;-70
2023/10/19 05:58:57;;;;;;;29.03;14.23;;;;;;;11.39;100.00;98538.00;4998301;28;20239;-70
2023/10/19 06:01:24;;;;;;;36.13;16.33;;;;;;;11.57;100.00;98549.09;4993185;28;20201;-71
2023/10/19 06:03:51;;;;;;;42.10;16.73;;;;;;;11.50;100.00;98555.44;4993492;28;20212;-70
2023/10/19 06:06:19;;;;;;;36.50;17.40;;;;;;;11.53;100.00;98542.13;4997419;28;20207;-70
2023/10/19 06:08:46;;;;;;;31.47;15.70;;;;;;;11.60;100.00;98540.22;4992924;28;20203;-71
2023/10/19 06:11:13;;;;;;;35.10;15.63;;;;;;;11.55;100.00;98542.97;4996953;28;20320;-71
2023/10/19 06:13:39;;;;;;;33.20;16.50;;;;;;;11.57;100.00;98540.28;4997536;28;20635;-69
2023/10/19 06:16:06;;;;;;;32.50;16.37;;;;;;;11.66;100.00;98542.75;4992962;28;20231;-70
2023/10/19 06:18:33;;;;;;;34.97;16.20;;;;;;;11.58;100.00;98539.38;4997142;28;20790;-71
2023/10/19 06:20:59;;;;;;;38.00;17.57;;;;;;;11.64;100.00;98549.88;5004270;28;20221;-70
2023/10/19 06:23:25;;;;;;;36.23;16.07;;;;;;;11.60;100.00;98549.03;5003233;28;20222;-70
2023/10/19 06:25:52;;;;;;;35.53;15.27;;;;;;;11.61;100.00;98555.25;4998886;28;20235;-71
2023/10/19 06:28:18;;;;;;;30.07;14.30;;;;;;;11.59;100.00;98551.72;4994305;28;20208;-71
2023/10/19 06:30:48;;;;;;;27.67;14.10;;;;;;;11.59;100.00;98555.25;5002248;28;20699;-69
2023/10/19 06:33:14;;;;;;;31.53;14.77;;;;;;;11.61;100.00;98558.78;5002844;28;20835;-73
2023/10/19 06:35:41;;;;;;;38.00;17.57;;;;;;;11.67;100.00;98549.81;4996963;28;20218;-69
2023/10/19 06:38:09;;;;;;;54.27;18.77;;;;;;;11.69;100.00;98558.59;5000571;28;20219;-68
2023/10/19 06:40:36;;;;;;;49.33;18.60;;;;;;;11.76;100.00;98560.22;5005659;28;20224;-69
2023/10/19 06:43:03;;;;;;;44.53;18.00;;;;;;;11.76;100.00;98539.00;5008134;28;20216;-68
2023/10/19 06:45:29;;;;;;;48.53;18.27;;;;;;;11.86;100.00;98559.16;4997808;28;21674;-68
2023/10/19 06:47:58;;;;;;;43.13;17.67;;;;;;;11.87;100.00;98546.75;4999473;28;20195;-69
2023/10/19 06:50:25;;;;;;;34.47;14.80;;;;;;;11.91;100.00;98546.66;4999465;28;20230;-69
2023/10/19 06:52:54;;;;;;;29.70;14.73;;;;;;;11.98;100.00;98549.16;5003191;28;20210;-69
2023/10/19 06:55:22;;;;;;;33.37;15.07;;;;;;;12.07;100.00;98557.81;5002143;28;20236;-68
2023/10/19 06:57:51;;;;;;;44.77;18.60;;;;;;;12.14;100.00;98548.81;5002470;28;20224;-70
2023/10/19 07:00:22;;;;;;;44.53;18.67;;;;;;;12.20;100.00;98567.25;4996838;28;20303;-70
2023/10/19 07:02:52;;;;;;;32.40;16.30;;;;;;;12.19;100.00;98551.38;4997690;28;20669;-70
2023/10/19 07:05:23;;;;;;;34.50;16.30;;;;;;;12.20;100.00;98550.44;5002300;28;20204;-70
2023/10/19 07:07:53;;;;;;;45.27;18.37;;;;;;;12.24;100.00;98552.13;5002913;28;20204;-70
2023/10/19 07:10:20;;;;;;;47.73;18.87;;;;;;;12.15;100.00;98555.00;4995904;28;20228;-71
2023/10/19 07:12:50;;;;;;;55.77;20.47;;;;;;;12.19;100.00;98552.22;5002662;28;20668;-71
2023/10/19 07:15:19;;;;;;;50.13;19.50;;;;;;;12.19;100.00;98544.28;5000656;28;20272;-70
2023/10/19 07:17:46;;;;;;;47.63;18.90;;;;;;;12.21;100.00;98544.25;4994568;28;20707;-70
2023/10/19 07:20:28;;;;;;;53.73;20.10;;;;;;;12.24;100.00;98547.69;4999003;28;20619;-70
2023/10/19 07:22:56;;;;;;;51.63;20.50;;;;;;;12.30;100.00;98544.03;4997933;28;20204;-70
2023/10/19 07:25:25;;;;;;;51.87;21.17;;;;;;;12.32;100.00;98544.84;4992347;28;20232;-72
2023/10/19 07:27:52;;;;;;;45.90;18.40;;;;;;;12.33;100.00;98543.94;5000649;28;20197;-73
2023/10/19 07:30:21;;;;;;;40.93;18.83;;;;;;;12.24;100.00;98544.16;4995389;28;20239;-71
2023/10/19 07:32:53;;;;;;;43.97;18.67;;;;;;;12.33;100.00;98549.25;5002155;28;20204;-70
2023/10/19 07:35:25;;;;;;;43.87;17.43;;;;;;;12.24;100.00;98550.34;4998328;28;20302;-72
2023/10/19 07:37:52;;;;;;;41.10;16.33;;;;;;;12.18;100.00;98546.97;5001379;28;20242;-73
2023/10/19 07:40:19;;;;;;;36.90;15.60;;;;;;;12.18;100.00;98554.94;4998167;28;20306;-72
2023/10/19 07:42:46;;;;;;;31.97;14.87;;;;;;;12.16;100.00;98551.44;4997023;28;20235;-71
2023/10/19 07:45:13;;;;;;;35.70;16.97;;;;;;;12.23;100.00;98558.34;4999318;28;20211;-72
2023/10/19 07:47:40;;;;;;;33.37;16.33;;;;;;;12.28;100.00;98566.19;5000920;28;20201;-73
2023/10/19 07:50:15;;;;;;;35.77;16.17;;;;;;;12.25;100.00;98564.50;5002322;28;20622;-71
2023/10/19 07:52:43;;;;;;;40.53;18.07;;;;;;;12.37;100.00;98568.63;4996392;28;20258;-72
2023/10/19 07:55:10;;;;;;;37.37;16.07;;;;;;;12.40;100.00;98548.19;4998042;28;20210;-70
2023/10/19 07:57:37;;;;;;;38.40;16.07;;;;;;;12.41;100.00;98547.31;4999053;28;20761;-70
2023/10/19 08:00:04;;;;;;;34.07;15.97;;;;;;;12.40;100.00;98539.34;5004279;28;20307;-69
2023/10/19 08:02:34;;;;;;;39.50;17.40;;;;;;;12.46;100.00;98537.47;4995310;28;20619;-71
2023/10/19 08:05:02;;;;;;;39.27;16.93;;;;;;;12.51;100.00;98551.50;5000131;28;20682;-72
2023/10/19 08:07:30;;;;;;;34.87;16.23;;;;;;;12.63;100.00;98537.03;5000160;28;20198;-70
2023/10/19 08:09:58;;;;;;;48.13;18.27;;;;;;;12.73;100.00;98535.00;4999026;28;20251;-68
2023/10/19 08:12:26;;;;;;;42.23;18.87;;;;;;;12.75;100.00;98526.09;4995522;28;20243;-70
2023/10/19 08:14:55;;;;;;;45.13;19.67;;;;;;;12.83;100.00;98529.47;5001614;28;20200;-69
2023/10/19 08:17:22;;;;;;;44.17;17.80;;;;;;;12.82;100.00;98538.34;4996379;28;20711;-68
2023/10/19 08:19:48;;;;;;;45.90;19.00;;;;;;;12.79;100.00;98535.72;4993880;28;20231;-69
2023/10/19 08:22:15;;;;;;;40.13;18.37;;;;;;;12.91;100.00;98555.81;4999013;28;20296;-69
2023/10/19 08:24:45;;;;;;;48.00;18.23;;;;;;;12.98;100.00;98533.50;4994594;28;20208;-68
2023/10/19 08:27:13;;;;;;;40.83;17.27;;;;;;;13.24;100.00;98540.81;4998228;28;20214;-69
2023/10/19 08:29:39;;;;;;;54.03;20.13;;;;;;;13.32;100.00;98540.59;5000190;28;20251;-71
2023/10/19 08:32:06;;;;;;;48.53;20.10;;;;;;;13.40;100.00;98542.13;4993160;28;20250;-70
2023/10/19 08:34:36;;;;;;;41.10;17.50;;;;;;;13.54;100.00;98549.72;4998858;28;20299;-69
2023/10/19 08:37:06;;;;;;;41.07;18.27;;;;;;;13.51;100.00;98536.50;4998411;28;20740;-68
2023/10/19 08:39:37;;;;;;;48.23;19.70;;;;;;;13.56;100.00;98541.69;4996671;28;20724;-69
2023/10/19 08:42:04;;;;;;;48.07;18.60;;;;;;;13.63;100.00;98525.53;4996885;28;20240;-70
2023/10/19 08:44:35;;;;;;;42.13;19.37;;;;;;;13.67;100.00;98515.69;5001522;28;20207;-69
2023/10/19 08:47:02;;;;;;;42.90;18.50;;;;;;;13.69;100.00;98509.41;4996416;28;20207;-69
2023/10/19 08:49:29;;;;;;;45.13;18.73;;;;;;;13.73;100.00;98508.38;4997615;28;20283;-69
2023/10/19 08:51:58;;;;;;;48.10;20.00;;;;;;;13.77;100.00;98499.41;5000284;28;20215;-70
2023/10/19 08:54:25;;;;;;;47.83;19.10;;;;;;;13.80;100.00;98506.41;4995127;28;20211;-70
2023/10/19 08:56:52;;;;;;;52.30;20.23;;;;;;;13.70;100.00;98500.50;4995841;28;20235;-70
2023/10/19 08:59:18;;;;;;;48.37;18.40;;;;;;;13.74;100.00;98498.63;5004286;28;20325;-70
2023/10/19 09:01:45;;;;;;;42.50;17.43;;;;;;;13.88;100.00;98507.03;4997561;28;20298;-69
2023/10/19 09:04:13;;;;;;;41.87;17.70;;;;;;;13.94;100.00;98504.19;4999162;28;20248;-70
2023/10/19 09:06:43;;;;;;;33.87;16.03;;;;;;;14.02;100.00;98502.19;4995281;28;20286;-71
2023/10/19 09:09:16;;;;;;;36.90;16.13;;;;;;;14.00;100.00;98501.34;4999169;28;20208;-71
2023/10/19 09:11:43;;;;;;;34.40;14.07;;;;;;;14.10;100.00;98493.97;5002583;28;20646;-69
2023/10/19 09:14:12;;;;;;;39.10;16.43;;;;;;;14.06;100.00;98497.66;4994885;28;20232;-70
2023/10/19 09:16:57;;;;;;;33.53;13.87;;;;;;;14.01;100.00;98496.91;5000007;28;20196;-70
2023/10/19 09:19:40;;;;;;;42.13;16.17;;;;;;;14.02;100.00;98498.66;4994910;28;20239;-70
2023/10/19 09:22:08;;;;;;;39.47;15.90;;;;;;;14.09;100.00;98501.09;5000709;28;20210;-69
2023/10/19 09:24:35;;;;;;;35.43;16.63;;;;;;;14.04;100.00;98486.19;5000436;28;20192;-70
2023/10/19 09:27:03;;;;;;;45.83;18.47;;;;;;;14.19;100.00;98485.69;4991191;28;20225;-69
2023/10/19 09:29:33;;;;;;;46.60;19.10;;;;;;;14.29;100.00;98483.59;4999073;28;20224;-69
2023/10/19 09:32:04;;;;;;;50.37;19.63;;;;;;;14.54;100.00;98459.72;5002123;28;20219;-70
2023/10/19 09:34:32;;;;;;;39.40;17.67;;;;;;;14.61;100.00;98451.47;4996606;28;20690;-69
2023/10/19 09:37:00;;;;;;;43.03;17.07;;;;;;;14.86;100.00;98454.19;4997981;28;20341;-70
2023/10/19 09:39:36;;;;;;;35.30;15.80;;;;;;;14.83;100.00;98445.44;4997268;28;20733;-69
2023/10/19 09:42:10;;;;;;;34.73;14.60;;;;;;;14.62;100.00;98445.22;4995577;28;20291;-70
2023/10/19 09:44:44;;;;;;;26.43;13.30;;;;;;;14.74;100.00;98460.78;4998940;28;20590;-70
2023/10/19 09:47:30;;;;;;;22.10;12.20;;;;;;;14.81;100.00;98456.13;4999141;28;20220;-70
2023/10/19 09:49:57;;;;;;;23.80;11.60;;;;;;;14.85;100.00;98454.22;5001014;28;20235;-71
2023/10/19 09:52:26;;;;;;;26.57;13.00;;;;;;;14.98;100.00;98460.88;5002153;28;20220;-70
2023/10/19 09:55:19;;;;;;;23.37;11.47;;;;;;;15.07;100.00;98457.00;4999367;28;20204;-70
2023/10/19 09:57:53;;;;;;;22.30;11.47;;;;;;;15.12;100.00;98453.25;4996857;28;20220;-72
2023/10/19 10:00:31;;;;;;;24.37;11.83;;;;;;;15.30;100.00;98460.59;4996816;28;20224;-70
2023/10/19 10:02:58;;;;;;;19.10;10.40;;;;;;;15.18;100.00;98468.13;4999702;28;20712;-70
2023/10/19 10:05:43;;;;;;;24.83;11.57;;;;;;;15.16;100.00;98468.19;4996315;28;20262;-70
2023/10/19 10:08:18;;;;;;;22.70;10.80;;;;;;;15.19;100.00;98469.88;4990327;28;20204;-70
2023/10/19 10:10:46;;;;;;;26.87;12.63;;;;;;;15.09;100.00;98466.69;5002378;28;20294;-71
2023/10/19 10:13:30;;;;;;;23.73;12.10;;;;;;;15.02;100.00;98471.38;4994083;28;20266;-70
2023/10/19 10:15:59;;;;;;;23.03;12.30;;;;;;;14.92;100.00;98480.63;5003947;28;20232;-72
2023/10/19 10:18:29;;;;;;;24.50;12.60;;;;;;;14.86;100.00;98483.50;4995683;28;20228;-70
2023/10/19 10:21:08;;;;;;;26.50;12.03;;;;;;;15.10;100.00;98464.88;4992775;28;20239;-70
2023/10/19 10:23:40;;;;;;;25.67;12.77;;;;;;;15.14;100.00;98467.38;5001220;28;20218;-70
2023/10/19 10:26:08;;;;;;;24.30;11.90;;;;;;;15.18;100.00;98479.69;5003318;28;20242;-68
2023/10/19 10:28:35;;;;;;;24.57;12.40;;;;;;;15.17;100.00;98479.72;4996136;28;20266;-68
2023/10/19 10:31:13;;;;;;;26.03;12.60;;;;;;;15.21;100.00;98484.94;4995545;28;20450;-70
2023/10/19 10:33:45;;;;;;;21.97;12.17;;;;;;;15.38;100.00;98480.78;4994332;28;20239;-70
2023/10/19 10:36:13;;;;;;;27.23;13.63;;;;;;;15.43;100.00;98476.13;4998268;28;20209;-70
2023/10/19 10:38:40;;;;;;;27.83;13.10;;;;;;;15.64;100.00;98457.56;5007498;28;20569;-70
2023/10/19 10:41:10;;;;;;;27.13;13.73;;;;;;;15.73;100.00;98463.47;4997902;28;20220;-69
2023/10/19 10:43:57;;;;;;;28.47;13.13;;;;;;;16.00;100.00;98449.03;4997634;28;20399;-72
2023/10/19 10:46:27;;;;;;;32.47;13.97;;;;;;;15.94;100.00;98439.47;4999999;28;20634;-72
2023/10/19 10:48:53;;;;;;;27.73;13.90;;;;;;;15.81;100.00;98432.03;4997994;28;20215;-72
2023/10/19 10:51:24;;;;;;;26.10;13.07;;;;;;;15.53;100.00;98451.72;4992606;28;20205;-72
2023/10/19 10:53:52;;;;;;;27.23;12.67;;;;;;;15.37;100.00;98445.22;4998583;28;20208;-72
2023/10/19 10:56:21;;;;;;;29.93;13.93;;;;;;;15.47;100.00;98449.28;4997726;28;20243;-72
2023/10/19 10:58:48;;;;;;;25.50;13.13;;;;;;;15.35;100.00;98436.41;5001902;28;20220;-72
2023/10/19 11:01:14;;;;;;;32.00;13.33;;;;;;;15.46;100.00;98447.53;5001110;28;20319;-72
2023/10/19 11:03:42;;;;;;;30.23;14.53;;;;;;;15.44;100.00;98449.41;4996625;28;20222;-70
2023/10/19 11:06:09;;;;;;;25.97;13.10;;;;;;;15.57;100.00;98452.47;4999757;28;20201;-72
2023/10/19 11:08:38;;;;;;;26.57;13.73;;;;;;;15.51;100.00;98448.22;4995946;28;20201;-70
2023/10/19 11:11:12;;;;;;;28.60;13.50;;;;;;;15.55;100.00;98443.66;4996380;28;20319;-69
2023/10/19 11:13:39;;;;;;;30.77;14.43;;;;;;;15.60;100.00;98444.38;5005320;28;20257;-70
2023/10/19 11:16:07;;;;;;;30.57;14.87;;;;;;;15.71;100.00;98435.97;5004827;28;20200;-71
2023/10/19 11:18:45;;;;;;;27.33;14.73;;;;;;;15.79;100.00;98431.22;5003180;28;20648;-70
2023/10/19 11:21:14;;;;;;;25.80;13.10;;;;;;;15.88;100.00;98429.03;5006961;28;20236;-70
2023/10/19 11:23:42;;;;;;;27.20;13.17;;;;;;;16.07;100.00;98426.53;5000379;28;20242;-70
2023/10/19 11:26:10;;;;;;;27.30;14.00;;;;;;;16.12;100.00;98427.22;5000054;28;20304;-70
2023/10/19 11:28:50;;;;;;;27.33;13.70;;;;;;;16.25;100.00;98414.22;4999121;28;20691;-70
2023/10/19 11:31:23;;;;;;;26.13;13.37;;;;;;;16.26;100.00;98411.47;4995541;28;20227;-71
2023/10/19 11:33:55;;;;;;;29.30;14.03;;;;;;;16.19;100.00;98415.34;5004190;28;20231;-71
2023/10/19 11:36:23;;;;;;;28.17;13.67;;;;;;;16.13;100.00;98414.72;5009930;28;20204;-70
2023/10/19 11:38:52;;;;;;;29.53;12.97;;;;;;;16.09;100.00;98407.78;5007047;28;20236;-68
2023/10/19 11:41:19;;;;;;;27.67;14.10;;;;;;;16.17;100.00;98406.53;5004250;28;20291;-69
2023/10/19 11:43:48;;;;;;;28.73;13.70;;;;;;;16.20;100.00;98403.72;4994573;28;20663;-69